Time;durP1;ratioP1;P1;durP2;ratioP2;P2;SDS_P1;SDS_P2;PMS_P1;PMS_P2;Temp;Humidity;BMP_temperature;BMP_pressure;BME280_temperature;BME280_humidity;BME280_pressure;Samples;Min_cycle;Max_cycle;Signal;HPM_P1;HPM_P2
2021/01/06 00:03:33;;;;;;;1999.90;999.90;;;;;;;6.22;75.56;100883.41;15861445;28;20047;-57
2021/01/06 00:11:06;;;;;;;1999.90;999.90;;;;;;;6.25;75.13;100877.25;15861390;28;20048;-58
2021/01/06 00:18:40;;;;;;;1999.90;999.90;;;;;;;6.15;76.19;100872.72;15842604;28;20036;-58
2021/01/06 00:26:12;;;;;;;1999.90;999.90;;;;;;;6.16;76.04;100874.38;15842484;28;20051;-57
2021/01/06 00:33:46;;;;;;;1999.90;999.90;;;;;;;6.23;75.75;100862.88;15842677;28;20048;-58
2021/01/06 00:41:25;;;;;;;1999.90;999.90;;;;;;;6.48;75.16;100868.06;15800889;28;20044;-55
2021/01/06 00:49:00;;;;;;;1999.90;999.90;;;;;;;6.28;76.41;100873.91;15842767;28;20093;-56
2021/01/06 00:56:34;;;;;;;1999.90;999.90;;;;;;;6.24;76.12;100861.75;15853996;28;20074;-53
2021/01/06 01:04:11;;;;;;;1999.90;999.90;;;;;;;6.34;75.68;100854.09;15854467;28;20150;-60
2021/01/06 01:11:44;;;;;;;1999.90;999.90;;;;;;;6.42;74.72;100849.03;15871971;28;20459;-57
2021/01/06 01:19:18;;;;;;;1999.90;999.90;;;;;;;6.40;75.42;100843.78;15871585;28;20051;-54
2021/01/06 01:26:51;;;;;;;1999.90;999.90;;;;;;;6.24;76.31;100831.28;15869452;28;20400;-56
2021/01/06 01:34:25;;;;;;;1999.90;999.90;;;;;;;6.22;76.39;100834.34;15868951;28;20035;-57
2021/01/06 01:41:58;;;;;;;1999.90;999.90;;;;;;;6.16;75.78;100827.25;15869594;28;20126;-57
2021/01/06 01:49:40;;;;;;;1999.90;999.90;;;;;;;6.29;75.59;100811.81;15868638;28;20050;-56
2021/01/06 01:57:17;;;;;;;1999.90;999.90;;;;;;;6.28;75.61;100822.06;15868654;28;20137;-55
2021/01/06 02:04:56;;;;;;;1999.90;999.90;;;;;;;6.35;75.35;100813.34;15853682;28;20082;-57
2021/01/06 02:12:36;;;;;;;1999.90;999.90;;;;;;;6.51;75.47;100805.63;15849215;28;20393;-59
2021/01/06 02:20:17;;;;;;;1999.90;999.90;;;;;;;6.20;75.83;100795.03;15866784;28;20509;-56
2021/01/06 02:27:51;;;;;;;1999.90;999.90;;;;;;;6.28;75.18;100790.78;15846848;28;20047;-56
2021/01/06 02:35:24;;;;;;;1999.90;999.90;;;;;;;6.25;75.08;100780.28;15847830;28;20135;-55
2021/01/06 02:42:58;;;;;;;1999.90;999.90;;;;;;;6.15;75.65;100772.13;15865501;28;20036;-58
2021/01/06 02:50:32;;;;;;;1999.90;999.90;;;;;;;6.08;76.17;100761.44;15825218;28;20071;-59
2021/01/06 02:58:10;;;;;;;1999.90;999.90;;;;;;;6.12;75.80;100769.97;15850354;28;20086;-59
2021/01/06 03:05:48;;;;;;;1999.90;999.90;;;;;;;6.10;76.21;100752.81;15863261;28;20044;-53
2021/01/06 03:13:21;;;;;;;1999.90;999.90;;;;;;;5.96;75.68;100753.59;15861935;28;20131;-55
2021/01/06 03:20:57;;;;;;;;;;;;;;;5.93;76.64;100747.81;15845301;28;20057;-57
2021/01/06 03:28:32;;;;;;;1999.90;999.90;;;;;;;6.28;74.95;100744.47;15863300;28;19924;-57
2021/01/06 03:36:08;;;;;;;1999.90;999.90;;;;;;;6.07;75.50;100741.22;15843993;28;20042;-57
2021/01/06 03:43:47;;;;;;;1999.90;999.90;;;;;;;6.05;75.16;100737.13;15843439;28;20138;-57
2021/01/06 03:51:28;;;;;;;1999.90;999.90;;;;;;;6.20;74.83;100724.94;15844081;28;20042;-55
2021/01/06 03:59:10;;;;;;;1999.90;999.90;;;;;;;5.88;75.62;100722.97;15861014;28;20370;-58
2021/01/06 04:06:45;;;;;;;1999.90;999.90;;;;;;;6.01;75.76;100713.91;15861296;28;20048;-56
2021/01/06 04:14:19;;;;;;;1999.90;999.90;;;;;;;5.90;75.68;100704.09;15842483;28;20494;-55
2021/01/06 04:21:52;;;;;;;;;;;;;;;5.72;75.46;100701.03;15862101;28;20056;-58
2021/01/06 04:29:26;;;;;;;1999.90;999.90;;;;;;;5.21;77.46;100701.81;15868490;28;19991;-58
2021/01/06 04:36:59;;;;;;;1999.90;999.90;;;;;;;5.44;76.75;100691.78;15854668;28;20114;-54
2021/01/06 04:44:43;;;;;;;1999.90;999.90;;;;;;;5.68;75.65;100701.94;15872490;28;20051;-57
2021/01/06 04:52:36;;;;;;;1999.90;999.90;;;;;;;5.58;75.73;100691.03;15853388;28;20130;-56
2021/01/06 05:00:30;;;;;;;1999.90;999.90;;;;;;;5.58;75.74;100688.28;15852463;28;20100;-57
2021/01/06 05:08:15;;;;;;;1999.90;999.90;;;;;;;5.39;76.38;100689.09;15870047;28;20046;-52
2021/01/06 05:15:55;;;;;;;1999.90;999.90;;;;;;;5.38;75.35;100684.69;15851852;28;20043;-55
2021/01/06 05:23:29;;;;;;;1999.90;999.90;;;;;;;5.41;74.79;100686.84;15870702;28;20031;-52
2021/01/06 05:31:03;;;;;;;1999.90;999.90;;;;;;;5.33;75.19;100686.72;15850546;28;20515;-56
2021/01/06 05:38:35;;;;;;;;;;;;;;;5.68;74.54;100677.03;15867211;28;20483;-56
2021/01/06 05:46:25;;;;;;;1999.90;999.90;;;;;;;5.64;74.72;100682.38;15849208;28;20091;-54
2021/01/06 05:54:01;;;;;;;1999.90;999.90;;;;;;;5.41;74.21;100686.00;15849972;28;20054;-56
2021/01/06 06:01:44;;;;;;;1999.90;999.90;;;;;;;5.28;74.43;100682.06;15866853;28;20092;-58
2021/01/06 06:09:27;;;;;;;;;;;;;;;5.36;74.81;100672.28;15846769;28;20115;-58
2021/01/06 06:17:33;;;;;;;1999.90;999.90;;;;;;;5.24;74.65;100661.66;15866468;28;19920;-57
2021/01/06 06:25:18;;;;;;;1999.90;999.90;;;;;;;5.14;74.57;100662.63;15866257;28;20069;-57
2021/01/06 06:32:52;;;;;;;1999.90;999.90;;;;;;;5.30;74.49;100660.44;15847360;28;20409;-57
2021/01/06 06:40:26;;;;;;;1999.90;999.90;;;;;;;5.08;74.98;100661.03;15865271;28;20388;-58
2021/01/06 06:48:12;;;;;;;1999.90;999.90;;;;;;;5.26;74.55;100653.88;15846468;28;20063;-58
2021/01/06 06:55:49;;;;;;;1999.90;999.90;;;;;;;5.10;74.80;100664.31;15864191;28;20109;-58
2021/01/06 07:03:26;;;;;;;1999.90;999.90;;;;;;;5.19;74.44;100664.47;15845327;28;20081;-53
2021/01/06 07:11:03;;;;;;;1999.90;999.90;;;;;;;5.23;74.17;100657.25;15863510;28;20035;-58
2021/01/06 07:18:44;;;;;;;1999.90;999.90;;;;;;;5.11;74.33;100637.50;15863241;28;20051;-59
2021/01/06 07:26:21;;;;;;;1999.90;999.90;;;;;;;4.83;75.66;100630.97;15844563;27;20051;-56
2021/01/06 07:33:56;;;;;;;1999.90;999.90;;;;;;;4.99;75.46;100650.94;15844259;28;20575;-57
2021/01/06 07:41:30;;;;;;;1999.90;999.90;;;;;;;4.92;75.51;100656.84;15861945;28;20411;-57
2021/01/06 07:49:31;;;;;;;1999.90;999.90;;;;;;;4.90;75.21;100646.09;15843299;28;20101;-56
2021/01/06 07:57:12;;;;;;;1999.90;999.90;;;;;;;5.22;74.77;100658.38;15832525;28;20493;-53
2021/01/06 08:05:01;;;;;;;1999.90;999.90;;;;;;;5.02;74.94;100659.47;15839247;28;20142;-53
2021/01/06 08:12:39;;;;;;;1999.90;999.90;;;;;;;4.79;75.69;100674.13;15843142;28;20051;-52
2021/01/06 08:20:20;;;;;;;1999.90;999.90;;;;;;;5.00;74.68;100672.75;15858404;28;20425;-58
2021/01/06 08:27:53;;;;;;;1999.90;999.90;;;;;;;4.92;74.59;100671.50;15886485;28;20568;-50
2021/01/06 08:35:32;;;;;;;1999.90;999.90;;;;;;;5.21;73.76;100673.31;15862301;28;20125;-52
2021/01/06 08:43:10;;;;;;;1999.90;999.90;;;;;;;5.19;73.14;100670.84;15921975;28;20047;-51
2021/01/06 08:50:45;;;;;;;1999.90;999.90;;;;;;;4.87;74.57;100676.25;15903512;28;20080;-52
2021/01/06 08:58:17;;;;;;;1999.90;999.90;;;;;;;5.04;74.17;100678.53;15920640;28;20088;-54
2021/01/06 09:06:00;;;;;;;1999.90;999.90;;;;;;;5.23;73.01;100684.91;15902387;28;20035;-54
2021/01/06 09:13:39;;;;;;;1999.90;999.90;;;;;;;5.27;73.54;100674.88;15927504;27;20043;-52
2021/01/06 09:21:20;;;;;;;1999.90;999.90;;;;;;;5.37;73.55;100671.97;15934379;27;20046;-54
2021/01/06 09:29:00;;;;;;;1999.90;999.90;;;;;;;5.33;74.16;100672.88;15914675;27;20468;-54
2021/01/06 09:36:35;;;;;;;1999.90;999.90;;;;;;;5.50;73.01;100673.97;15914696;27;20035;-52
2021/01/06 09:44:09;;;;;;;1999.90;999.90;;;;;;;5.48;73.47;100667.91;15914571;27;20050;-55
2021/01/06 09:51:48;;;;;;;1999.90;999.90;;;;;;;5.68;73.38;100674.28;15903717;27;20418;-57
2021/01/06 09:59:25;;;;;;;1999.90;999.90;;;;;;;5.58;73.40;100666.94;15864144;28;20047;-58
2021/01/06 10:07:13;;;;;;;1999.90;999.90;;;;;;;5.85;73.11;100669.00;15863164;28;20048;-53
2021/01/06 10:15:08;;;;;;;1999.90;999.90;;;;;;;5.72;73.14;100653.16;15843969;28;20048;-58
2021/01/06 10:22:49;;;;;;;1999.90;999.90;;;;;;;5.74;73.77;100637.91;15848412;28;20035;-53
2021/01/06 10:30:24;;;;;;;1999.90;999.90;;;;;;;6.00;72.77;100643.84;15865734;28;20054;-56
2021/01/06 10:38:12;;;;;;;1999.90;999.90;;;;;;;5.68;74.00;100624.44;15863140;27;20042;-59
2021/01/06 10:45:45;;;;;;;1999.90;999.90;;;;;;;5.71;73.24;100626.59;15826415;28;20059;-54
2021/01/06 10:53:25;;;;;;;1999.90;999.90;;;;;;;5.71;73.27;100621.88;15870806;27;20063;-56
2021/01/06 11:01:38;;;;;;;1999.90;999.90;;;;;;;5.47;73.92;100610.09;15844146;28;20576;-51
2021/01/06 11:09:25;;;;;;;1999.90;999.90;;;;;;;5.81;73.15;100601.50;15861724;28;20449;-54
2021/01/06 11:17:24;;;;;;;1999.90;999.90;;;;;;;5.86;73.26;100604.19;15842271;28;20048;-49
2021/01/06 11:25:02;;;;;;;1999.90;999.90;;;;;;;5.59;73.34;100593.84;15839785;28;20066;-54
2021/01/06 11:32:38;;;;;;;1999.90;999.90;;;;;;;5.68;73.24;100596.75;15860373;27;20035;-54
2021/01/06 11:40:47;;;;;;;1999.90;999.90;;;;;;;5.57;73.00;100582.25;15858998;28;20043;-53
2021/01/06 11:48:27;;;;;;;1999.90;999.90;;;;;;;5.68;72.98;100582.91;15859297;28;20097;-51
2021/01/06 11:56:13;;;;;;;1999.90;999.90;;;;;;;5.48;73.43;100573.00;15858907;28;20051;-57
2021/01/06 12:04:01;;;;;;;1999.90;999.90;;;;;;;5.68;72.23;100553.28;15860158;28;20473;-54
2021/01/06 12:11:41;;;;;;;1999.90;999.90;;;;;;;5.51;72.63;100545.53;15796708;28;20454;-57
2021/01/06 12:19:45;;;;;;;1999.90;999.90;;;;;;;5.53;72.49;100534.19;15795230;28;20040;-51
2021/01/06 12:27:39;;;;;;;1999.90;999.90;;;;;;;5.80;72.21;100536.97;15807685;28;20093;-50
2021/01/06 12:35:26;;;;;;;1999.90;999.90;;;;;;;5.61;71.63;100530.69;15860583;28;20062;-54
2021/01/06 12:43:02;;;;;;;1999.90;999.90;;;;;;;5.17;73.38;100529.25;15860766;28;20039;-56
2021/01/06 12:50:49;;;;;;;1999.90;999.90;;;;;;;5.25;73.97;100529.69;15867429;28;20047;-58
2021/01/06 12:58:27;;;;;;;1999.90;999.90;;;;;;;5.70;72.05;100536.34;15852407;28;20061;-56
2021/01/06 13:06:13;;;;;;;1999.90;999.90;;;;;;;5.87;71.98;100539.38;15836124;28;20283;-53
2021/01/06 13:14:16;;;;;;;1999.90;999.90;;;;;;;5.09;73.19;100540.16;15870777;28;20043;-54
2021/01/06 13:22:04;;;;;;;1999.90;999.90;;;;;;;5.34;72.98;100536.19;15868992;27;20043;-53
2021/01/06 13:29:59;;;;;;;1999.90;999.90;;;;;;;4.93;73.64;100536.81;15848505;28;20046;-52
2021/01/06 13:37:35;;;;;;;1999.90;999.90;;;;;;;5.32;73.34;100541.19;15858742;28;20047;-52
2021/01/06 13:45:22;;;;;;;1999.90;999.90;;;;;;;5.28;72.23;100538.19;15840802;28;20039;-56
2021/01/06 13:53:00;;;;;;;1999.90;999.90;;;;;;;5.55;71.57;100553.25;15846733;28;20135;-55
2021/01/06 14:00:42;;;;;;;1999.90;999.90;;;;;;;5.03;73.26;100536.66;15847219;28;20405;-54
2021/01/06 14:08:23;;;;;;;1999.90;999.90;;;;;;;5.08;74.49;100533.81;15851068;27;20079;-57
2021/01/06 14:16:26;;;;;;;1999.90;999.90;;;;;;;5.35;73.43;100533.09;15843527;28;20075;-62
2021/01/06 14:24:02;;;;;;;1999.90;999.90;;;;;;;4.77;74.78;100529.88;15862081;28;20515;-54
2021/01/06 14:31:39;;;;;;;1999.90;999.90;;;;;;;5.17;73.38;100537.53;15844396;28;20116;-53
2021/01/06 14:39:38;;;;;;;1999.90;999.90;;;;;;;4.61;75.29;100541.16;15862262;28;20119;-57
2021/01/06 14:47:40;;;;;;;1999.90;999.90;;;;;;;4.71;74.89;100542.94;15846140;28;20065;-54
2021/01/06 14:55:19;;;;;;;1999.90;999.90;;;;;;;4.69;75.11;100538.81;15845604;28;20032;-54
2021/01/06 15:03:22;;;;;;;1999.90;999.90;;;;;;;4.84;75.28;100544.13;15863989;28;20043;-57
2021/01/06 15:11:14;;;;;;;1999.90;999.90;;;;;;;5.09;73.96;100537.41;15857699;27;20082;-55
2021/01/06 15:18:53;;;;;;;1999.90;999.90;;;;;;;4.63;75.28;100529.78;15862428;27;20167;-55
2021/01/06 15:26:36;;;;;;;1999.90;999.90;;;;;;;4.46;75.58;100533.06;15823466;28;20392;-53
2021/01/06 15:34:18;;;;;;;1999.90;999.90;;;;;;;4.47;75.31;100536.63;15869181;27;20116;-55
2021/01/06 15:41:58;;;;;;;1999.90;999.90;;;;;;;4.83;74.00;100534.22;15858867;28;20491;-53
2021/01/06 15:49:36;;;;;;;1999.90;999.90;;;;;;;4.74;74.45;100536.81;15841567;28;20063;-53
2021/01/06 15:57:14;;;;;;;1999.90;999.90;;;;;;;4.41;75.37;100529.53;15841425;28;20034;-57
2021/01/06 16:04:48;;;;;;;1999.90;999.90;;;;;;;4.61;74.31;100527.34;15861334;28;20067;-56
2021/01/06 16:12:24;;;;;;;1999.90;999.90;;;;;;;4.27;75.26;100526.66;15862201;28;20061;-52
2021/01/06 16:20:01;;;;;;;1999.90;999.90;;;;;;;4.50;74.40;100519.47;15843146;28;20067;-52
2021/01/06 16:27:36;;;;;;;1999.90;999.90;;;;;;;4.41;74.64;100524.84;15852138;28;20071;-55
2021/01/06 16:35:19;;;;;;;1999.90;999.90;;;;;;;4.21;75.11;100523.16;15855254;28;20036;-54
2021/01/06 16:42:55;;;;;;;1999.90;999.90;;;;;;;4.46;74.77;100524.75;15875006;28;20116;-53
2021/01/06 16:50:33;;;;;;;1999.90;999.90;;;;;;;4.13;76.00;100526.56;15873574;28;20085;-58
2021/01/06 16:58:09;;;;;;;1999.90;999.90;;;;;;;3.99;75.95;100526.47;15873068;28;20043;-55
2021/01/06 17:05:46;;;;;;;1999.90;999.90;;;;;;;4.24;75.41;100530.03;15872355;28;20072;-54
2021/01/06 17:13:20;;;;;;;1999.90;999.90;;;;;;;4.50;73.81;100536.06;15854809;28;20189;-60
2021/01/06 17:20:58;;;;;;;1999.90;999.90;;;;;;;4.36;74.51;100530.41;15871740;28;20122;-55
2021/01/06 17:28:32;;;;;;;1999.90;999.90;;;;;;;4.39;74.17;100543.66;15871282;28;20066;-57
2021/01/06 17:36:07;;;;;;;1999.90;999.90;;;;;;;4.60;73.05;100545.03;15869838;27;20409;-59
2021/01/06 17:43:43;;;;;;;1999.90;999.90;;;;;;;4.32;74.41;100543.19;15866925;28;20051;-51
2021/01/06 17:51:16;;;;;;;1999.90;999.90;;;;;;;4.56;73.83;100552.25;15869521;28;20111;-57
2021/01/06 17:58:50;;;;;;;1999.90;999.90;;;;;;;4.12;74.98;100546.19;15870114;28;20071;-53
2021/01/06 18:06:24;;;;;;;;;;;;;;;4.33;74.47;100558.66;15868587;28;20131;-59
2021/01/06 18:14:02;;;;;;;1999.90;999.90;;;;;;;4.24;74.40;100563.19;15868136;28;19919;-58
2021/01/06 18:21:36;;;;;;;1999.90;999.90;;;;;;;3.87;76.01;100556.41;15867191;28;20134;-58
2021/01/06 18:29:10;;;;;;;1999.90;999.90;;;;;;;4.37;74.51;100570.75;15867849;28;20048;-59
2021/01/06 18:36:44;;;;;;;1999.90;999.90;;;;;;;4.25;74.85;100562.06;15848576;28;20086;-55
2021/01/06 18:44:18;;;;;;;1999.90;999.90;;;;;;;4.07;75.13;100557.31;15865814;28;20092;-56
2021/01/06 18:51:53;;;;;;;1999.90;999.90;;;;;;;4.13;74.72;100558.88;15847771;28;20096;-56
2021/01/06 18:59:31;;;;;;;1999.90;999.90;;;;;;;4.26;73.97;100559.00;15865864;28;20051;-59
2021/01/06 19:07:04;;;;;;;1999.90;999.90;;;;;;;4.22;74.63;100562.66;15864181;28;20044;-58
2021/01/06 19:14:40;;;;;;;1999.90;999.90;;;;;;;4.49;73.62;100576.69;15822987;28;20150;-59
2021/01/06 19:22:13;;;;;;;1999.90;999.90;;;;;;;3.92;75.81;100564.63;15825453;28;20058;-57
2021/01/06 19:29:55;;;;;;;1999.90;999.90;;;;;;;4.03;74.94;100570.88;15827996;28;20081;-59
2021/01/06 19:37:28;;;;;;;1999.90;999.90;;;;;;;4.04;75.36;100570.56;15844656;28;20495;-61
2021/01/06 19:45:05;;;;;;;1999.90;999.90;;;;;;;4.18;74.67;100573.47;15863646;28;20099;-58
2021/01/06 19:52:38;;;;;;;1999.90;999.90;;;;;;;4.16;75.38;100572.09;15863292;28;20043;-59
2021/01/06 20:00:13;;;;;;;1999.90;999.90;;;;;;;3.99;75.40;100573.41;15843554;28;20047;-59
2021/01/06 20:07:55;;;;;;;1999.90;999.90;;;;;;;4.27;74.77;100571.72;15842401;28;20089;-54
2021/01/06 20:15:30;;;;;;;1999.90;999.90;;;;;;;3.92;76.14;100572.09;15861493;28;20062;-55
2021/01/06 20:23:04;;;;;;;1999.90;999.90;;;;;;;4.25;75.09;100562.88;15861791;28;20484;-53
2021/01/06 20:30:37;;;;;;;;;;;;;;;4.10;75.81;100565.84;15826557;28;20082;-56
2021/01/06 20:38:10;;;;;;;1999.90;999.90;;;;;;;4.21;75.95;100572.06;15805927;28;20460;-55
2021/01/06 20:45:47;;;;;;;1999.90;999.90;;;;;;;4.37;74.86;100562.44;15862284;28;20052;-54
2021/01/06 20:53:20;;;;;;;1999.90;999.90;;;;;;;4.21;75.37;100567.34;15862090;28;20301;-58
2021/01/06 21:00:54;;;;;;;1999.90;999.90;;;;;;;4.27;75.41;100568.94;15843649;28;20069;-57
2021/01/06 21:08:26;;;;;;;;;;;;;;;4.48;74.55;100564.00;15863578;28;20068;-57
2021/01/06 21:16:00;;;;;;;1999.90;999.90;;;;;;;4.48;74.96;100561.22;15871114;28;19927;-55
2021/01/06 21:23:33;;;;;;;1999.90;999.90;;;;;;;4.02;76.41;100555.41;15852755;28;20036;-53
2021/01/06 21:31:07;;;;;;;1999.90;999.90;;;;;;;3.87;77.08;100550.06;15868723;28;20125;-53
2021/01/06 21:38:39;;;;;;;1999.90;999.90;;;;;;;4.19;76.33;100544.75;15851524;28;20036;-56
2021/01/06 21:46:13;;;;;;;1999.90;999.90;;;;;;;3.52;77.76;100542.97;15850927;28;20457;-57
2021/01/06 21:53:45;;;;;;;;;;;;;;;4.00;76.44;100544.66;15864134;28;20417;-56
2021/01/06 22:01:19;;;;;;;1999.90;999.90;;;;;;;4.04;76.27;100539.38;15849889;28;19984;-53
2021/01/06 22:08:53;;;;;;;1999.90;999.90;;;;;;;3.70;77.34;100534.78;15848679;28;20039;-55
2021/01/06 22:16:29;;;;;;;1999.90;999.90;;;;;;;3.67;77.55;100537.31;15867151;28;20096;-55
2021/01/06 22:24:01;;;;;;;1999.90;999.90;;;;;;;3.64;77.91;100532.34;15839052;28;20052;-56
2021/01/06 22:31:39;;;;;;;1999.90;999.90;;;;;;;3.52;78.02;100535.50;15811704;28;20496;-57
2021/01/06 22:39:12;;;;;;;1999.90;999.90;;;;;;;3.84;76.96;100531.31;15863292;28;20507;-55
2021/01/06 22:46:46;;;;;;;1999.90;999.90;;;;;;;3.61;77.57;100531.00;15845721;28;20047;-53
2021/01/06 22:54:18;;;;;;;1999.90;999.90;;;;;;;3.63;76.98;100536.22;15864813;28;20052;-58
2021/01/06 23:01:52;;;;;;;1999.90;999.90;;;;;;;3.44;77.63;100534.22;15846187;28;20485;-55
2021/01/06 23:09:25;;;;;;;1999.90;999.90;;;;;;;3.43;77.77;100535.31;15845729;28;20073;-53
2021/01/06 23:16:58;;;;;;;1999.90;999.90;;;;;;;3.18;78.29;100533.59;15863570;28;20039;-56
2021/01/06 23:24:31;;;;;;;1999.90;999.90;;;;;;;3.31;77.94;100537.63;15863277;28;20051;-54
2021/01/06 23:32:06;;;;;;;1999.90;999.90;;;;;;;3.33;77.28;100532.63;15862854;28;20048;-51
2021/01/06 23:39:38;;;;;;;1999.90;999.90;;;;;;;3.37;76.89;100519.09;15862440;28;20039;-51
2021/01/06 23:47:12;;;;;;;1999.90;999.90;;;;;;;3.57;76.29;100523.63;15863284;28;20039;-51
2021/01/06 23:54:45;;;;;;;1999.90;999.90;;;;;;;3.19;77.33;100528.91;15862420;28;20070;-56
